LiveATC.Net - Listen to live air traffic control over the Internet!


ICAO: KAKR  IATA: AKR   Airport: Akron Fulton International Airport
City: Akron   State/Province: Ohio
Country: United States   Continent: North America
KAKR METAR Weather: KAKR 271754Z AUTO 21015KT 10SM FEW023 SCT038 BKN048 23/17 A2963 RMK AO2 SLP027 60000 T02330172 10233 20183 50010
KAKR ADS-B Flight Tracking  (ADSBExchange)
KAKR Flight Activity (FlightAware)
KAKR Airport Info   (iFlightPlanner)
KAKR VFR Sectional Chart   (iFlightPlanner) 
KAKR IFR Low Altitude Chart   (iFlightPlanner) 
KAKR IFR High Altitude Chart   (iFlightPlanner) 

KAKR CTAF
Feed Status: UP   Listeners: 0
Listen in your browser - HTML5 player (in browser, HTML5)
Click here to listen with your own player (launches your MP3 player)
Archive Access: KAKR CTAF
FacilityFrequency
Akron CTAF123.075

NOTICE

Unauthorized use prohibited. See LiveATC.net Terms of Service


Airport/ARTCC Code
Frequency Search
(e.g., 124.400, 128.75)
Site-wide search
 


Browse Feeds
Top 50 Feeds
HF Oceanic Feeds
Coverage Map
Bad Weather Areas

LiveATC FAQ

Increase Coverage

Contact LiveATC.net
Press Inquiries

LiveATC on iPhone
LiveATC on Android

LiveATC Mobile
(Mobile browser)

ATC Audio Archives
Interesting Recordings

LiveATC Forums


Home Page
About LiveATC.net


Terms of Use
Privacy Policy

AIRMETs/SIGMETs

FAA Airport Status
NAS Status
Arrival Demand


Server Software By:
Icecast.org
Liquidsoap